Terminal Aerodrome Forecast
Issued by NWS Wakefield, VA

Home | Current Version | Previous Version | Text Only | Print | Product List | Glossary On
Versions: 1 2 3 4 5 6 7 8 9 10 11 12 13 14 15
000
FTUS41 KAKQ 301120
TAFORF
TAF
KORF 301120Z 3012/3112 16004KT P6SM SCT250
     FM302000 18010KT P6SM SCT100 BKN250
     FM310700 24006KT P6SM OVC100=

USA.gov is the U.S. government's official web portal to all federal, state and local government web resources and services.